Time;durP1;ratioP1;P1;durP2;ratioP2;P2;SDS_P1;SDS_P2;PMS_P1;PMS_P2;Temp;Humidity;BMP_temperature;BMP_pressure;BME280_temperature;BME280_humidity;BME280_pressure;Samples;Min_cycle;Max_cycle;Signal;HPM_P1;HPM_P2
2022/05/10 00:01:17;;;;;;;4.70;3.13;;;14.50;66.30;;;;;;5034929;28;20452;-60
2022/05/10 00:03:45;;;;;;;6.00;3.87;;;14.50;66.70;;;;;;5035824;28;20485;-60
2022/05/10 00:06:12;;;;;;;6.43;4.40;;;14.50;66.80;;;;;;5036879;28;20441;-60
2022/05/10 00:08:41;;;;;;;7.27;4.80;;;14.50;67.10;;;;;;5036034;28;20453;-59
2022/05/10 00:11:09;;;;;;;5.10;4.60;;;14.50;67.30;;;;;;5033562;28;20448;-60
2022/05/10 00:13:36;;;;;;;6.07;3.90;;;14.50;67.60;;;;;;5033555;28;21039;-60
2022/05/10 00:16:04;;;;;;;5.80;3.30;;;14.60;68.00;;;;;;5034572;28;20539;-60
2022/05/10 00:18:31;;;;;;;5.00;3.57;;;14.60;68.20;;;;;;5033625;28;20453;-60
2022/05/10 00:21:00;;;;;;;5.60;3.97;;;14.60;68.40;;;;;;5034213;28;20447;-60
2022/05/10 00:23:27;;;;;;;6.47;4.40;;;14.60;68.60;;;;;;5033082;28;20484;-60
2022/05/10 00:25:54;;;;;;;4.47;3.60;;;14.60;69.10;;;;;;5036233;28;20524;-59
2022/05/10 00:28:21;;;;;;;3.90;3.20;;;14.60;69.40;;;;;;5037008;28;20451;-61
2022/05/10 00:30:48;;;;;;;11.53;4.20;;;14.50;69.70;;;;;;5036860;28;20455;-60
2022/05/10 00:33:20;;;;;;;3.90;3.27;;;14.50;70.10;;;;;;5036932;28;20472;-60
2022/05/10 00:35:47;;;;;;;4.30;3.90;;;14.50;70.40;;;;;;5037206;28;20453;-61
2022/05/10 00:38:15;;;;;;;4.20;3.77;;;14.50;70.80;;;;;;5037282;28;20449;-60
2022/05/10 00:40:43;;;;;;;7.80;4.30;;;14.50;71.20;;;;;;5037555;28;20825;-60
2022/05/10 00:43:18;;;;;;;6.83;4.73;;;14.50;71.60;;;;;;5037086;28;20467;-60
2022/05/10 00:45:50;;;;;;;4.13;3.70;;;14.50;71.90;;;;;;5037341;28;20487;-60
2022/05/10 00:48:26;;;;;;;5.10;3.73;;;14.50;72.20;;;;;;5037338;28;20424;-59
2022/05/10 00:50:59;;;;;;;5.57;3.80;;;14.50;72.50;;;;;;5037452;28;20428;-60
2022/05/10 00:53:35;;;;;;;4.80;4.00;;;14.50;72.70;;;;;;5037154;28;20468;-60
2022/05/10 00:56:08;;;;;;;4.63;3.80;;;14.50;73.00;;;;;;5037405;28;20425;-60
2022/05/10 00:58:44;;;;;;;5.90;4.00;;;14.50;73.10;;;;;;5036582;28;20826;-60
2022/05/10 01:01:16;;;;;;;5.67;3.90;;;14.50;73.30;;;;;;5038182;28;20428;-59
2022/05/10 01:03:48;;;;;;;5.63;4.20;;;14.50;73.60;;;;;;5037609;28;20559;-62
2022/05/10 01:06:22;;;;;;;6.20;4.33;;;14.50;73.70;;;;;;5038350;28;20451;-60
2022/05/10 01:09:01;;;;;;;6.70;4.20;;;14.50;73.80;;;;;;5039159;28;20432;-61
2022/05/10 01:11:34;;;;;;;4.47;3.97;;;14.50;73.80;;;;;;5039326;28;20456;-61
2022/05/10 01:14:08;;;;;;;5.70;4.10;;;14.50;74.10;;;;;;5038504;28;20464;-60
2022/05/10 01:16:36;;;;;;;4.50;4.10;;;14.50;74.90;;;;;;5037521;28;20420;-59
2022/05/10 01:19:03;;;;;;;4.40;4.00;;;14.50;74.30;;;;;;5037884;28;20448;-59
2022/05/10 01:21:44;;;;;;;7.43;4.60;;;14.40;74.30;;;;;;5038890;28;20449;-58
2022/05/10 01:24:34;;;;;;;5.17;4.00;;;14.40;74.50;;;;;;5037680;28;20872;-58
2022/05/10 01:27:28;;;;;;;6.80;4.40;;;14.40;74.80;;;;;;5036748;28;20437;-59
2022/05/10 01:30:02;;;;;;;4.50;3.80;;;14.30;74.90;;;;;;5028249;28;20444;-57
2022/05/10 01:35:24;;;;;;;6.50;4.20;;;14.30;75.10;;;;;;5036205;28;20540;-59
2022/05/10 01:37:55;;;;;;;6.13;4.63;;;14.30;75.40;;;;;;5034813;28;20456;-60
2022/05/10 01:40:30;;;;;;;5.73;4.30;;;14.30;75.50;;;;;;5035464;28;20436;-61
2022/05/10 01:43:03;;;;;;;4.50;3.60;;;14.20;75.60;;;;;;5035657;28;20467;-60
2022/05/10 01:45:36;;;;;;;4.67;4.23;;;14.20;75.80;;;;;;5035233;28;20460;-61
2022/05/10 01:48:05;;;;;;;7.57;3.90;;;14.20;76.10;;;;;;5035577;28;20800;-60
2022/05/10 01:50:38;;;;;;;5.80;3.83;;;14.20;76.30;;;;;;5035146;28;20452;-59
2022/05/10 01:53:08;;;;;;;5.73;4.07;;;14.10;76.50;;;;;;5035329;28;20473;-59
2022/05/10 01:55:37;;;;;;;10.53;4.20;;;14.10;76.70;;;;;;5035246;28;20452;-60
2022/05/10 01:58:09;;;;;;;5.20;4.40;;;14.10;77.00;;;;;;5035137;28;20445;-59
2022/05/10 02:00:39;;;;;;;5.50;3.77;;;14.10;77.10;;;;;;5035028;28;20829;-59
2022/05/10 02:03:13;;;;;;;5.33;4.20;;;14.10;77.20;;;;;;5035270;28;20579;-58
2022/05/10 02:05:48;;;;;;;5.90;4.30;;;14.10;77.50;;;;;;5035210;28;20500;-58
2022/05/10 02:08:25;;;;;;;4.70;3.80;;;14.10;77.60;;;;;;5035117;28;20435;-58
2022/05/10 02:10:54;;;;;;;4.90;4.33;;;14.10;77.60;;;;;;5035196;28;20432;-58
2022/05/10 02:13:26;;;;;;;6.50;4.40;;;14.10;77.50;;;;;;5034995;28;20465;-58
2022/05/10 02:15:58;;;;;;;7.63;4.30;;;14.20;77.60;;;;;;5034755;28;20432;-59
2022/05/10 02:18:32;;;;;;;4.20;3.80;;;14.20;77.50;;;;;;5034881;28;21009;-60
2022/05/10 02:21:05;;;;;;;5.97;4.10;;;14.20;77.60;;;;;;5034726;28;20429;-58
2022/05/10 02:23:37;;;;;;;7.80;4.60;;;14.20;77.60;;;;;;5034619;28;20492;-61
2022/05/10 02:26:08;;;;;;;5.40;3.90;;;14.20;77.70;;;;;;5034731;28;20476;-60
2022/05/10 02:28:43;;;;;;;5.70;4.13;;;14.30;77.70;;;;;;5035041;28;20456;-61
2022/05/10 02:31:15;;;;;;;4.83;4.30;;;14.30;77.60;;;;;;5034809;28;20428;-60
2022/05/10 02:33:43;;;;;;;6.77;3.80;;;14.30;77.50;;;;;;5034292;28;20461;-60
2022/05/10 02:36:10;;;;;;;6.70;3.60;;;14.40;77.50;;;;;;5034566;28;20937;-59
2022/05/10 02:38:40;;;;;;;4.27;3.87;;;14.40;77.30;;;;;;5034763;28;20787;-59
2022/05/10 02:41:12;;;;;;;7.90;3.70;;;14.40;77.20;;;;;;5034609;28;20439;-59
2022/05/10 02:43:45;;;;;;;9.90;3.70;;;14.40;77.00;;;;;;5035352;28;20464;-58
2022/05/10 02:46:14;;;;;;;5.23;4.17;;;14.50;77.00;;;;;;5035339;28;20501;-59
2022/05/10 02:48:41;;;;;;;6.10;3.77;;;14.50;76.80;;;;;;5034040;28;20448;-59
2022/05/10 02:51:08;;;;;;;9.20;4.07;;;14.50;76.70;;;;;;5035059;28;20811;-59
2022/05/10 02:53:35;;;;;;;4.57;4.17;;;14.50;76.60;;;;;;5034831;28;20468;-59
2022/05/10 02:56:05;;;;;;;6.37;4.77;;;14.50;76.40;;;;;;5034658;28;20449;-59
2022/05/10 02:58:36;;;;;;;11.83;4.30;;;14.50;76.20;;;;;;5034383;28;20441;-59
2022/05/10 03:01:09;;;;;;;6.87;4.60;;;14.50;76.20;;;;;;5034778;28;20429;-60
2022/05/10 03:03:38;;;;;;;5.57;4.07;;;14.50;76.10;;;;;;5042604;28;20461;-60
2022/05/10 03:06:05;;;;;;;4.70;4.30;;;14.50;76.20;;;;;;5040050;28;20485;-60
2022/05/10 03:08:32;;;;;;;6.50;4.67;;;14.50;76.30;;;;;;5040201;28;20449;-60
2022/05/10 03:11:00;;;;;;;4.63;3.60;;;14.50;76.50;;;;;;5040275;28;20996;-59
2022/05/10 03:13:27;;;;;;;6.47;4.80;;;14.40;76.40;;;;;;5038434;28;20475;-60
2022/05/10 03:15:54;;;;;;;8.03;4.13;;;14.40;76.50;;;;;;5034432;28;20441;-59
2022/05/10 03:18:21;;;;;;;7.33;4.00;;;14.40;76.70;;;;;;5034058;28;20447;-59
2022/05/10 03:20:50;;;;;;;5.90;4.00;;;14.30;76.80;;;;;;5034212;28;20437;-59
2022/05/10 03:23:17;;;;;;;4.30;3.90;;;14.30;76.80;;;;;;5033987;28;20500;-58
2022/05/10 03:25:44;;;;;;;5.53;4.10;;;14.30;76.90;;;;;;5035734;28;20491;-59
2022/05/10 03:28:11;;;;;;;7.17;4.30;;;14.30;77.10;;;;;;5035402;28;20449;-60
2022/05/10 03:30:38;;;;;;;5.40;3.57;;;14.30;77.10;;;;;;5034772;28;20449;-60
2022/05/10 03:33:06;;;;;;;8.37;3.50;;;14.30;77.10;;;;;;5034014;28;20575;-59
2022/05/10 03:35:33;;;;;;;4.70;3.70;;;14.30;77.10;;;;;;5034121;28;20460;-60
2022/05/10 03:38:02;;;;;;;10.13;4.40;;;14.30;77.30;;;;;;5033817;28;20460;-59
2022/05/10 03:40:29;;;;;;;5.73;3.37;;;14.30;77.30;;;;;;5034230;28;20862;-59
2022/05/10 03:42:56;;;;;;;8.27;4.30;;;14.30;77.40;;;;;;5033710;28;20464;-60
2022/05/10 03:45:24;;;;;;;6.40;4.27;;;14.30;77.30;;;;;;5033712;28;21035;-59
2022/05/10 03:47:52;;;;;;;5.20;3.73;;;14.30;77.40;;;;;;5033746;28;20463;-60
2022/05/10 03:50:23;;;;;;;7.40;3.43;;;14.30;77.50;;;;;;5033805;28;20445;-59
2022/05/10 03:52:51;;;;;;;4.77;3.90;;;14.30;77.50;;;;;;5033581;28;20465;-60
2022/05/10 03:55:23;;;;;;;4.60;4.20;;;14.30;77.40;;;;;;5033560;28;20452;-60
2022/05/10 03:57:51;;;;;;;5.93;3.97;;;14.30;77.40;;;;;;5033929;28;20460;-60
2022/05/10 04:00:21;;;;;;;5.33;3.97;;;14.40;77.40;;;;;;5033299;28;20506;-59
2022/05/10 04:02:48;;;;;;;5.20;4.60;;;14.40;77.20;;;;;;5034873;28;20503;-59
2022/05/10 04:05:16;;;;;;;5.60;4.13;;;14.50;77.20;;;;;;5033537;28;20481;-59
2022/05/10 04:09:46;;;;;;;4.67;3.47;;;14.60;76.50;;;;;;5091535;27;20591;-60
2022/05/10 04:12:13;;;;;;;5.93;4.17;;;14.60;76.60;;;;;;5090387;28;20978;-60
2022/05/10 04:14:40;;;;;;;5.10;4.30;;;14.70;76.40;;;;;;5090416;28;20437;-60
2022/05/10 04:17:07;;;;;;;7.60;4.10;;;14.70;76.10;;;;;;5090567;28;20450;-61
2022/05/10 04:19:34;;;;;;;5.87;4.23;;;14.80;76.00;;;;;;5090858;28;20434;-61
2022/05/10 04:22:01;;;;;;;4.47;3.93;;;14.90;75.70;;;;;;5090575;28;20453;-61
2022/05/10 04:24:28;;;;;;;6.70;3.70;;;15.00;75.30;;;;;;5089945;22;20921;-61
2022/05/10 04:26:56;;;;;;;4.13;3.70;;;15.10;74.90;;;;;;5051779;28;20819;-61
2022/05/10 04:29:24;;;;;;;6.00;3.90;;;15.20;74.40;;;;;;5050781;28;20475;-62
2022/05/10 04:31:51;;;;;;;5.53;4.10;;;15.30;73.90;;;;;;5050284;28;20456;-60
2022/05/10 04:34:18;;;;;;;6.53;4.07;;;15.40;73.40;;;;;;5050365;28;20474;-60
2022/05/10 04:36:45;;;;;;;5.80;4.07;;;15.50;73.10;;;;;;5050485;28;20526;-61
2022/05/10 04:39:12;;;;;;;6.83;4.30;;;15.60;72.70;;;;;;5049981;28;20448;-61
2022/05/10 04:41:45;;;;;;;6.40;4.00;;;15.70;72.40;;;;;;5049925;28;20440;-60
2022/05/10 04:44:14;;;;;;;4.10;3.50;;;15.80;72.00;;;;;;5049606;28;20464;-60
2022/05/10 04:46:42;;;;;;;7.53;4.33;;;15.80;71.50;;;;;;5049936;28;20452;-60
2022/05/10 04:49:12;;;;;;;5.50;3.70;;;15.90;71.30;;;;;;5049663;28;20968;-59
2022/05/10 04:51:40;;;;;;;6.83;3.70;;;15.90;71.00;;;;;;5050273;28;20451;-60
2022/05/10 04:54:08;;;;;;;5.63;3.40;;;15.90;70.60;;;;;;5052599;28;20468;-61
2022/05/10 04:56:35;;;;;;;6.03;3.90;;;16.00;70.40;;;;;;5051276;28;20440;-60
2022/05/10 04:59:02;;;;;;;8.97;4.20;;;16.00;70.00;;;;;;5051083;28;20444;-61
2022/05/10 05:01:31;;;;;;;10.43;4.00;;;16.10;69.80;;;;;;5049992;28;20448;-60
2022/05/10 05:04:01;;;;;;;4.90;4.40;;;16.20;69.60;;;;;;5049539;28;20471;-60
2022/05/10 05:06:28;;;;;;;5.97;4.33;;;16.20;69.30;;;;;;5049500;28;20444;-60
2022/05/10 05:08:56;;;;;;;6.03;4.00;;;16.30;69.00;;;;;;5049487;28;20486;-61
2022/05/10 05:11:24;;;;;;;5.67;3.83;;;16.40;68.70;;;;;;5049253;28;20455;-61
2022/05/10 05:13:52;;;;;;;6.70;4.13;;;16.60;68.20;;;;;;5049437;28;20976;-60
2022/05/10 05:16:20;;;;;;;5.30;3.90;;;16.70;67.50;;;;;;5049682;28;20522;-61
2022/05/10 05:18:48;;;;;;;5.43;3.90;;;16.90;66.90;;;;;;5049513;28;20539;-60
2022/05/10 05:21:15;;;;;;;5.20;3.80;;;17.00;66.20;;;;;;5035984;28;20441;-61
2022/05/10 05:23:43;;;;;;;5.20;4.07;;;17.20;65.80;;;;;;5035723;28;20910;-60
2022/05/10 05:26:11;;;;;;;8.10;3.70;;;17.30;65.20;;;;;;5035856;28;20527;-60
2022/05/10 05:28:38;;;;;;;6.10;3.50;;;17.50;64.60;;;;;;5036160;28;20488;-61
2022/05/10 05:31:06;;;;;;;5.57;3.73;;;17.70;63.90;;;;;;5035806;28;20968;-60
2022/05/10 05:33:34;;;;;;;3.70;3.40;;;17.90;63.20;;;;;;5035776;28;20465;-60
2022/05/10 05:36:02;;;;;;;12.17;4.17;;;18.00;62.50;;;;;;5035886;28;20539;-59
2022/05/10 05:38:29;;;;;;;5.00;4.30;;;18.10;62.50;;;;;;5035743;28;20527;-60
2022/05/10 05:40:57;;;;;;;8.43;3.83;;;18.30;61.30;;;;;;5035184;28;20528;-58
2022/05/10 05:43:24;;;;;;;8.20;3.80;;;18.30;60.70;;;;;;5035410;28;20555;-59
2022/05/10 05:45:52;;;;;;;5.67;3.50;;;18.30;60.50;;;;;;5035772;28;20444;-60
2022/05/10 05:48:19;;;;;;;5.83;3.47;;;18.30;60.30;;;;;;5035462;28;20484;-59
2022/05/10 05:50:47;;;;;;;6.73;3.40;;;18.30;60.10;;;;;;5033049;28;20949;-61
2022/05/10 05:53:15;;;;;;;9.20;4.07;;;18.30;60.10;;;;;;5034031;28;20934;-62
2022/05/10 05:55:43;;;;;;;4.13;3.47;;;18.30;59.90;;;;;;5035747;28;20805;-60
2022/05/10 05:58:11;;;;;;;5.30;3.80;;;18.40;59.80;;;;;;5041101;28;20452;-60
2022/05/10 06:00:39;;;;;;;7.00;4.50;;;18.40;59.70;;;;;;5041720;28;20946;-61
2022/05/10 06:03:06;;;;;;;6.40;4.50;;;18.40;59.90;;;;;;5041467;28;20448;-59
2022/05/10 06:05:34;;;;;;;8.87;4.80;;;18.40;59.70;;;;;;5042528;28;20437;-59
2022/05/10 06:08:03;;;;;;;6.27;4.20;;;18.60;59.60;;;;;;5033814;28;20475;-60
2022/05/10 06:10:32;;;;;;;17.20;5.90;;;18.70;59.20;;;;;;5034833;28;20452;-60
2022/05/10 06:13:01;;;;;;;7.37;5.43;;;18.90;58.70;;;;;;5034887;28;20453;-58
2022/05/10 06:15:29;;;;;;;9.63;4.63;;;19.10;58.30;;;;;;5033809;28;20506;-60
2022/05/10 06:17:57;;;;;;;5.80;3.83;;;19.20;57.90;;;;;;5034552;28;20464;-59
2022/05/10 06:20:25;;;;;;;7.33;4.10;;;19.30;57.50;;;;;;5034486;28;20448;-60
2022/05/10 06:22:52;;;;;;;4.20;3.90;;;19.40;57.30;;;;;;5034450;28;20476;-60
2022/05/10 06:25:21;;;;;;;11.37;4.27;;;19.50;57.10;;;;;;5036049;28;20499;-61
2022/05/10 06:27:51;;;;;;;5.43;4.00;;;19.60;56.90;;;;;;5036553;28;20453;-60
2022/05/10 06:30:19;;;;;;;4.63;4.13;;;19.60;56.80;;;;;;5037865;28;21015;-59
2022/05/10 06:32:47;;;;;;;6.70;3.73;;;19.70;56.90;;;;;;5034424;28;20449;-60
2022/05/10 06:35:15;;;;;;;10.33;3.93;;;19.80;56.70;;;;;;5034404;28;21035;-60
2022/05/10 06:40:26;;;;;;;4.77;3.43;;;19.90;56.30;;;;;;5035820;28;20408;-60
2022/05/10 06:42:58;;;;;;;10.37;4.30;;;20.10;56.20;;;;;;5034350;28;20451;-59
2022/05/10 06:45:25;;;;;;;3.97;3.40;;;20.20;56.00;;;;;;5037171;28;20425;-60
2022/05/10 06:47:52;;;;;;;5.20;4.00;;;20.30;55.80;;;;;;5038123;28;20441;-60
2022/05/10 06:50:21;;;;;;;6.17;4.13;;;20.40;55.50;;;;;;5040592;28;20483;-61
2022/05/10 06:52:51;;;;;;;4.90;3.50;;;20.40;55.40;;;;;;5042802;28;20449;-61
2022/05/10 06:55:18;;;;;;;9.43;3.60;;;20.60;55.20;;;;;;5039740;28;20473;-60
2022/05/10 06:57:46;;;;;;;7.90;3.50;;;20.70;55.00;;;;;;5036156;28;20483;-60
2022/05/10 07:00:16;;;;;;;3.53;3.13;;;20.80;54.70;;;;;;5034797;28;20913;-62
2022/05/10 07:02:44;;;;;;;7.90;3.80;;;21.00;54.50;;;;;;5037824;28;20437;-61
2022/05/10 07:05:13;;;;;;;5.57;4.00;;;21.20;54.00;;;;;;5041250;28;20476;-61
2022/05/10 07:07:41;;;;;;;5.40;3.47;;;21.40;53.80;;;;;;5037090;28;20940;-61
2022/05/10 07:10:11;;;;;;;4.87;3.70;;;21.60;53.40;;;;;;5039587;28;20516;-60
2022/05/10 07:12:39;;;;;;;5.03;3.70;;;21.90;52.90;;;;;;5038577;28;20449;-61
2022/05/10 07:15:08;;;;;;;5.30;4.13;;;22.20;52.50;;;;;;5037070;28;20473;-61
2022/05/10 07:17:38;;;;;;;5.73;3.57;;;22.40;52.10;;;;;;5040251;28;20444;-59
2022/05/10 07:20:06;;;;;;;5.17;3.33;;;22.60;51.60;;;;;;5040299;28;20540;-59
2022/05/10 07:22:33;;;;;;;4.60;3.53;;;22.70;51.10;;;;;;5038937;28;20511;-61
2022/05/10 07:25:01;;;;;;;6.40;4.43;;;22.80;51.00;;;;;;5037757;28;20479;-61
2022/05/10 07:27:28;;;;;;;4.10;3.57;;;22.90;50.90;;;;;;5038072;28;20812;-58
2022/05/10 07:29:55;;;;;;;5.87;4.27;;;23.10;50.60;;;;;;5036771;28;20488;-59
2022/05/10 07:32:24;;;;;;;4.33;3.80;;;23.10;50.30;;;;;;5036058;28;20453;-61
2022/05/10 07:34:52;;;;;;;4.70;3.60;;;23.20;50.40;;;;;;5031979;28;20468;-60
2022/05/10 07:37:19;;;;;;;4.60;4.20;;;23.10;50.20;;;;;;5033334;28;20614;-60
2022/05/10 07:39:46;;;;;;;4.97;4.40;;;23.10;50.10;;;;;;5032964;28;20444;-60
2022/05/10 07:42:13;;;;;;;8.33;4.60;;;22.90;50.00;;;;;;5032282;28;20453;-61
2022/05/10 07:44:40;;;;;;;7.87;4.07;;;22.90;50.00;;;;;;5033382;28;20480;-60
2022/05/10 07:47:09;;;;;;;5.37;4.70;;;22.80;49.80;;;;;;5032952;28;20509;-61
2022/05/10 07:49:36;;;;;;;4.53;3.50;;;22.70;49.80;;;;;;5032576;28;20507;-60
2022/05/10 07:52:06;;;;;;;4.63;3.97;;;22.60;49.80;;;;;;5032924;28;20453;-61
2022/05/10 07:54:36;;;;;;;4.73;3.83;;;22.70;49.90;;;;;;5032178;28;20541;-61
2022/05/10 07:57:04;;;;;;;5.50;3.97;;;22.80;49.70;;;;;;5033287;28;20453;-60
2022/05/10 07:59:31;;;;;;;4.80;4.40;;;22.90;49.40;;;;;;5033318;28;20456;-60
2022/05/10 08:01:58;;;;;;;4.03;3.63;;;23.10;49.20;;;;;;5032488;28;20552;-60
2022/05/10 08:04:25;;;;;;;5.73;4.37;;;23.30;48.80;;;;;;5033012;28;20473;-60
2022/05/10 08:06:53;;;;;;;6.57;4.10;;;23.50;48.30;;;;;;5032663;28;20457;-60
2022/05/10 08:09:21;;;;;;;4.87;4.20;;;23.70;47.90;;;;;;5033496;28;20477;-59
2022/05/10 08:11:48;;;;;;;5.23;4.00;;;23.80;47.60;;;;;;5034168;28;20933;-61
2022/05/10 08:14:16;;;;;;;7.63;4.20;;;23.90;47.40;;;;;;5033571;28;20468;-59
2022/05/10 08:16:43;;;;;;;5.37;4.10;;;24.00;47.10;;;;;;5032618;28;20453;-60
2022/05/10 08:19:10;;;;;;;7.10;4.40;;;24.00;46.90;;;;;;5031533;28;20449;-61
2022/05/10 08:21:37;;;;;;;7.17;4.40;;;24.10;46.80;;;;;;5032568;28;20440;-60
2022/05/10 08:24:05;;;;;;;4.20;3.77;;;24.20;46.50;;;;;;5031718;28;20483;-60
2022/05/10 08:26:33;;;;;;;5.90;3.87;;;24.30;46.20;;;;;;5032526;28;20972;-60
2022/05/10 08:29:00;;;;;;;6.07;4.50;;;24.40;46.70;;;;;;5032821;28;20491;-61
2022/05/10 08:31:27;;;;;;;8.17;4.77;;;24.40;45.90;;;;;;5032102;28;20456;-61
2022/05/10 08:33:55;;;;;;;5.07;3.77;;;24.40;45.80;;;;;;5032979;28;20468;-60
2022/05/10 08:36:22;;;;;;;4.73;3.90;;;24.40;45.70;;;;;;5033193;28;20451;-61
2022/05/10 08:38:49;;;;;;;4.70;4.20;;;24.50;45.50;;;;;;5031872;28;20448;-61
2022/05/10 08:41:22;;;;;;;7.27;4.57;;;24.70;45.40;;;;;;5032794;28;20444;-61
2022/05/10 08:43:55;;;;;;;5.07;4.57;;;24.70;45.30;;;;;;5031704;28;20469;-60
2022/05/10 08:46:27;;;;;;;5.10;4.60;;;24.80;45.10;;;;;;5031962;28;20433;-62
2022/05/10 08:49:07;;;;;;;5.00;4.50;;;25.00;44.90;;;;;;5031993;28;20425;-61
2022/05/10 08:51:36;;;;;;;7.07;4.40;;;25.20;44.70;;;;;;5031954;28;20470;-61
2022/05/10 08:54:03;;;;;;;5.73;3.93;;;25.40;44.40;;;;;;5031724;28;20492;-62
2022/05/10 08:56:34;;;;;;;5.20;4.10;;;25.40;44.30;;;;;;5035628;28;20451;-63
2022/05/10 08:59:12;;;;;;;5.20;4.23;;;25.60;44.20;;;;;;5036588;28;20433;-61
2022/05/10 09:01:47;;;;;;;4.77;4.30;;;25.70;44.20;;;;;;5036524;28;20441;-64
2022/05/10 09:04:46;;;;;;;4.80;4.20;;;25.70;44.00;;;;;;5036178;28;20474;-61
2022/05/10 09:07:33;;;;;;;9.77;4.87;;;25.50;44.20;;;;;;5036315;28;20451;-62
2022/05/10 09:10:06;;;;;;;6.83;4.60;;;25.40;44.40;;;;;;5035930;28;20514;-62
2022/05/10 09:12:43;;;;;;;5.40;4.57;;;25.30;44.60;;;;;;5035645;28;20444;-61
2022/05/10 09:15:13;;;;;;;5.90;4.30;;;25.30;44.80;;;;;;5036694;28;20460;-61
2022/05/10 09:17:40;;;;;;;6.00;4.23;;;25.40;44.60;;;;;;5036856;28;20455;-62
2022/05/10 09:20:09;;;;;;;5.73;5.23;;;25.50;44.50;;;;;;5035841;28;20503;-61
2022/05/10 09:22:49;;;;;;;6.63;4.83;;;25.60;44.40;;;;;;5036577;28;20440;-62
2022/05/10 09:25:28;;;;;;;4.90;4.50;;;25.70;44.30;;;;;;5036882;28;20476;-62
2022/05/10 09:27:56;;;;;;;8.23;4.90;;;25.90;44.00;;;;;;5037558;28;20797;-61
2022/05/10 09:30:29;;;;;;;5.57;4.87;;;26.00;43.70;;;;;;5036932;28;20488;-61
2022/05/10 09:36:01;;;;;;;6.80;4.55;;;25.80;43.80;;;;;;5036566;28;20437;-61
2022/05/10 09:38:29;;;;;;;5.50;4.73;;;25.70;43.90;;;;;;5036282;28;20198;-61
2022/05/10 09:40:56;;;;;;;6.03;4.60;;;25.70;44.10;;;;;;5036271;28;20498;-62
2022/05/10 09:43:26;;;;;;;5.90;5.03;;;25.70;44.10;;;;;;5036447;28;20461;-62
2022/05/10 09:46:11;;;;;;;5.30;4.80;;;25.90;44.00;;;;;;5035005;28;20452;-61
2022/05/10 09:48:40;;;;;;;5.93;5.00;;;26.20;43.60;;;;;;5034234;28;20198;-62
2022/05/10 09:51:26;;;;;;;10.10;5.73;;;26.50;43.20;;;;;;5035899;28;20491;-62
2022/05/10 09:53:54;;;;;;;5.40;4.23;;;26.70;43.00;;;;;;5035529;28;20476;-61
2022/05/10 09:56:33;;;;;;;5.33;4.80;;;26.80;42.90;;;;;;5037888;28;20480;-61
2022/05/10 09:59:02;;;;;;;7.50;5.63;;;27.10;42.50;;;;;;5038183;28;20524;-61
2022/05/10 10:01:42;;;;;;;5.10;4.70;;;27.40;42.10;;;;;;5035903;28;20445;-60
2022/05/10 10:04:22;;;;;;;6.80;5.10;;;27.50;41.70;;;;;;5034836;28;20468;-63
2022/05/10 10:07:13;;;;;;;5.77;4.90;;;27.50;41.90;;;;;;5035214;28;20791;-61
2022/05/10 10:09:41;;;;;;;6.00;5.40;;;27.60;41.80;;;;;;5032321;28;20504;-63
2022/05/10 10:12:16;;;;;;;5.33;4.83;;;27.70;41.50;;;;;;5035107;28;20447;-61
2022/05/10 10:14:45;;;;;;;4.77;4.37;;;27.70;41.40;;;;;;5035144;28;20507;-62
2022/05/10 10:17:23;;;;;;;6.00;4.80;;;27.70;41.20;;;;;;5034180;28;20451;-62
2022/05/10 10:19:55;;;;;;;5.63;4.43;;;27.70;41.10;;;;;;5035334;28;20424;-61
2022/05/10 10:22:30;;;;;;;5.30;4.30;;;27.70;41.30;;;;;;5035116;28;20476;-60
2022/05/10 10:25:04;;;;;;;7.50;5.00;;;27.70;41.30;;;;;;5035520;28;20483;-62
2022/05/10 10:27:36;;;;;;;5.47;5.00;;;27.90;41.10;;;;;;5034895;28;20439;-61
2022/05/10 10:30:10;;;;;;;6.00;4.63;;;27.90;40.50;;;;;;5033468;28;20485;-63
2022/05/10 10:32:45;;;;;;;6.10;4.40;;;27.70;40.60;;;;;;5033675;28;20920;-61
2022/05/10 10:35:18;;;;;;;5.53;4.23;;;27.70;40.80;;;;;;5033651;28;20530;-62
2022/05/10 10:37:50;;;;;;;6.43;5.47;;;27.90;40.80;;;;;;5035490;28;20437;-62
2022/05/10 10:40:31;;;;;;;6.50;5.30;;;28.10;40.70;;;;;;5034980;28;20437;-61
2022/05/10 10:43:08;;;;;;;5.37;4.70;;;28.30;40.40;;;;;;5034005;28;20463;-60
2022/05/10 10:45:40;;;;;;;5.30;4.60;;;28.50;40.10;;;;;;5034197;28;20441;-61
2022/05/10 10:48:21;;;;;;;5.13;4.73;;;28.40;40.10;;;;;;5034542;28;20429;-60
2022/05/10 10:50:48;;;;;;;5.33;4.83;;;28.40;40.60;;;;;;5033390;28;20971;-60
2022/05/10 10:53:15;;;;;;;5.50;5.00;;;28.40;39.50;;;;;;5034079;28;20468;-59
2022/05/10 10:56:09;;;;;;;7.13;5.10;;;28.70;39.10;;;;;;5034133;28;20445;-60
2022/05/10 10:58:50;;;;;;;7.10;4.73;;;28.80;38.50;;;;;;5033710;28;20452;-59
2022/05/10 11:01:34;;;;;;;5.40;4.90;;;28.80;38.30;;;;;;5033515;28;20448;-60
2022/05/10 11:04:12;;;;;;;5.90;4.37;;;28.90;38.20;;;;;;5038598;28;20469;-60
2022/05/10 11:06:45;;;;;;;7.93;5.15;;;28.90;38.10;;;;;;5034746;28;20528;-60
2022/05/10 11:09:39;;;;;;;5.30;4.80;;;28.80;38.10;;;;;;5035079;28;20225;-61
2022/05/10 11:12:23;;;;;;;9.33;4.60;;;28.70;38.10;;;;;;5033499;28;20437;-60
2022/05/10 11:15:02;;;;;;;6.13;4.67;;;28.50;38.10;;;;;;5034136;28;20507;-60
2022/05/10 11:17:45;;;;;;;5.45;4.15;;;28.40;38.20;;;;;;5032297;28;20902;-59
2022/05/10 11:20:22;;;;;;;5.30;4.80;;;28.40;38.20;;;;;;5032514;28;20202;-60
2022/05/10 11:22:57;;;;;;;7.13;4.43;;;28.50;38.10;;;;;;5033695;28;20432;-61
2022/05/10 11:25:45;;;;;;;5.43;4.50;;;28.70;38.00;;;;;;5033278;28;20826;-60
2022/05/10 11:28:29;;;;;;;5.23;4.83;;;28.90;37.60;;;;;;5032769;28;20529;-60
2022/05/10 11:31:08;;;;;;;5.03;4.63;;;28.80;37.30;;;;;;5033074;28;20845;-61
2022/05/10 11:33:46;;;;;;;4.50;4.10;;;28.80;37.50;;;;;;5033390;28;20798;-60
2022/05/10 11:36:34;;;;;;;6.87;4.50;;;28.80;37.50;;;;;;5036871;28;20504;-59
2022/05/10 11:39:21;;;;;;;5.50;4.47;;;28.90;37.40;;;;;;5034588;28;20445;-59
2022/05/10 11:41:55;;;;;;;4.97;4.57;;;29.20;37.30;;;;;;5033626;28;20436;-60
2022/05/10 11:44:56;;;;;;;5.47;4.07;;;29.40;37.00;;;;;;5033310;28;20834;-59
2022/05/10 11:48:01;;;;;;;4.60;4.03;;;29.50;36.50;;;;;;5032262;28;20551;-60
2022/05/10 11:53:53;;;;;;;4.73;4.10;;;30.40;33.50;;;;;;5004789;28;20475;-59
2022/05/10 11:56:20;;;;;;;4.23;3.57;;;30.00;33.70;;;;;;5031793;28;20756;-62
2022/05/10 11:58:57;;;;;;;6.33;4.10;;;29.60;34.10;;;;;;5032242;28;20445;-60
2022/05/10 12:01:43;;;;;;;5.27;4.03;;;29.30;34.00;;;;;;5032309;28;20432;-61
2022/05/10 12:04:35;;;;;;;5.10;4.60;;;29.10;34.40;;;;;;5032178;28;20475;-60
2022/05/10 12:07:34;;;;;;;4.70;4.20;;;29.00;34.70;;;;;;5032530;28;20429;-59
2022/05/10 12:10:06;;;;;;;4.60;4.20;;;29.10;35.00;;;;;;5032567;28;20472;-60
2022/05/10 12:12:56;;;;;;;6.33;4.20;;;29.50;34.40;;;;;;5032828;28;20437;-60
2022/05/10 12:21:22;;;;;;;4.43;4.03;;;29.10;34.30;;;;;;5031759;28;20409;-60
2022/05/10 12:24:11;;;;;;;5.07;4.33;;;29.10;34.10;;;;;;5031587;28;20510;-59
2022/05/10 12:26:45;;;;;;;7.63;4.83;;;28.90;34.10;;;;;;5032422;28;20437;-60
2022/05/10 12:29:50;;;;;;;5.53;4.37;;;28.60;34.40;;;;;;5032741;28;20428;-60
2022/05/10 12:32:39;;;;;;;4.87;4.20;;;28.50;35.00;;;;;;5037344;28;20444;-59
2022/05/10 12:35:07;;;;;;;5.93;4.50;;;28.30;35.40;;;;;;5038655;28;20473;-60
2022/05/10 12:37:59;;;;;;;4.90;4.50;;;28.30;35.70;;;;;;5038628;28;20456;-60
2022/05/10 12:40:51;;;;;;;6.93;4.67;;;28.30;35.70;;;;;;5016847;28;20422;-60
2022/05/10 12:43:49;;;;;;;5.27;4.77;;;28.40;35.80;;;;;;5030226;28;20468;-58
2022/05/10 12:46:36;;;;;;;5.83;4.40;;;28.50;35.80;;;;;;5040593;28;20436;-60
2022/05/10 12:49:17;;;;;;;6.97;4.27;;;28.90;35.60;;;;;;5036848;28;20425;-60
2022/05/10 12:51:49;;;;;;;6.00;4.90;;;29.10;35.20;;;;;;5035514;28;20476;-60
2022/05/10 12:54:23;;;;;;;4.63;4.33;;;29.20;35.00;;;;;;5036300;28;20469;-58
2022/05/10 12:57:03;;;;;;;6.57;4.17;;;29.30;35.00;;;;;;5036448;28;20909;-60
2022/05/10 12:59:39;;;;;;;4.70;4.30;;;29.30;34.80;;;;;;5036069;28;20920;-60
2022/05/10 13:02:09;;;;;;;6.37;3.83;;;29.30;34.60;;;;;;5035117;28;20420;-58
2022/05/10 13:04:42;;;;;;;5.30;4.67;;;29.20;34.30;;;;;;5036339;28;20526;-60
2022/05/10 13:07:15;;;;;;;4.50;3.77;;;29.30;34.10;;;;;;5036080;28;20437;-59
2022/05/10 13:09:44;;;;;;;6.80;4.33;;;29.30;34.00;;;;;;5035633;28;20453;-61
2022/05/10 13:12:18;;;;;;;4.93;3.97;;;29.20;33.90;;;;;;5036148;28;20569;-59
2022/05/10 13:14:52;;;;;;;6.47;4.80;;;29.10;33.90;;;;;;5036312;28;20478;-60
2022/05/10 13:17:25;;;;;;;4.20;3.80;;;29.00;34.00;;;;;;5034867;28;20523;-60
2022/05/10 13:19:54;;;;;;;5.40;4.90;;;29.00;34.20;;;;;;5035835;28;20441;-59
2022/05/10 13:22:22;;;;;;;5.80;4.40;;;29.10;34.30;;;;;;5035328;28;20999;-59
2022/05/10 13:24:51;;;;;;;4.77;4.37;;;29.10;34.10;;;;;;5036232;28;20488;-59
2022/05/10 13:27:26;;;;;;;4.97;4.50;;;29.10;34.00;;;;;;5039221;28;20866;-61
2022/05/10 13:29:56;;;;;;;6.83;4.60;;;29.00;34.60;;;;;;5036965;28;20486;-60